x

East Scotia Slope (44137) Wave Buoy

5:00am - Thu 28th Aug 2014 All times are EDT. -4 hours from GMT.

  • Sig Wave height 5.2ft
  • Peak Period 14s
  • Wind
    9mph, 11mph gusts
  • Sea Temp 74°f
  • Air Temp 73°f
  • Sea Pressure 1010.4mb
  • East Scotia Slope
  • East Scotia Slope

More Historic Weather Station data

Upgrade to MSW Pro to gain access to the past 30 days of data for over 8000 Wavebouys and Weather Stations around the globe.

Join Pro

Comparision Forecast

View Surf forecast
   
Thu 08/28 5:00am 5ft 14s 9 11 mph 1010.4mb 74f 73f
4:00am 5ft 14s 11 13 mph 1010.6mb 74f 73f
3:00am 4.5ft 8s 11 13 mph 1011.4mb 74f 73f
2:00am 4.5ft 10s 13 16 mph 1012.1mb 74f 73f
1:00am 4.5ft 13s 13 16 mph 1013.1mb 74f 73f
12:00am 5ft 12s 16 18 mph 1014.3mb 74f 73f
Wed 08/27 11:00pm 5ft 8s 16 18 mph 1014.6mb 74f 73f
10:00pm 5ft 8s 16 18 mph 1015.2mb 74f 73f
9:00pm 5ft 8s 16 18 mph 1015.4mb 74f 73f
8:00pm 5ft 8s 18 22 mph 1015.7mb 74f 73f
7:00pm 5ft 5s 20 25 mph 1015.3mb 74f 73f
6:00pm 4.5ft 5s 20 22 mph 1015.2mb 74f 73f
5:00pm 4.5ft 8s 20 25 mph 1015.3mb 74f 73f
4:00pm 4.5ft 4s 22 25 mph 1015.3mb 74f 73f
3:00pm 4ft 9s 20 22 mph 1015.6mb 74f 73f
2:00pm 3.5ft 7s 18 22 mph 1016.3mb 74f 73f
1:00pm 3.5ft 8s 16 20 mph 1016.9mb 74f 73f
12:00pm 3ft 7s 16 18 mph 1017.2mb 74f 72f
11:00am 3ft 6s 16 20 mph 1017.7mb 74f 71f
10:00am 3ft 7s 13 18 mph 1018.3mb 74f 71f
9:00am 2.5ft 7s 13 16 mph 1018.3mb 74f 71f
8:00am 3ft 7s 9 13 mph 1018.5mb 74f 71f
7:00am 2.5ft 8s 9 11 mph 1018.1mb 74f 71f
6:00am 2.5ft 8s 9 11 mph 1018.1mb 74f 70f
5:00am 2.5ft 8s 9 11 mph 1018.1mb 74f 70f
4:00am 2.5ft 8s 13 18 mph 1018.3mb 74f 70f
3:00am 2.5ft 8s 11 13 mph 1018.4mb 74f 69f
2:00am 3ft 8s 9 13 mph 1018.6mb 74f 69f
1:00am 3ft 9s 7 9 mph 1018.6mb 74f 69f
12:00am 3ft 8s 4 7 mph 1019.1mb 74f 69f
Tue 08/26 11:00pm 3ft 8s 2 4 mph 1019.4mb 74f 69f
10:00pm 3ft 8s 2 4 mph 1019.9mb 74f 69f
9:00pm 3ft 8s 2 4 mph 1020.3mb 74f 69f
8:00pm 3ft 8s 2 4 mph 1020.5mb 74f 69f
7:00pm 3ft 9s 2 4 mph 1020.5mb 75f 69f
6:00pm 3ft 8s 2 4 mph 1020.7mb 75f 71f
5:00pm 3ft 8s 4
mph
1020.8mb 75f 71f
4:00pm 3ft 8s 2 4 mph 1021.3mb 75f 71f
3:00pm 3.5ft 8s 4 7 mph 1021.2mb 75f 70f
2:00pm 3.5ft 8s 4 7 mph 1021.9mb 75f 70f
1:00pm 3.5ft 8s 7 9 mph 1022.4mb 75f 70f
12:00pm 3.5ft 8s 9 11 mph 1022.7mb 74f 69f
11:00am 3.5ft 8s 9
mph
1022.7mb 74f 69f
10:00am 3ft 8s 7 9 mph 1023.2mb 74f 69f
9:00am 3.5ft 9s 7 9 mph 1023.1mb 74f 69f
8:00am 3.5ft 8s 7 11 mph 1022.8mb 74f 69f
7:00am 3.5ft 8s 4 9 mph 1022.7mb 74f 69f
6:00am 3.5ft 9s 4 7 mph 1022.3mb 74f 69f
5:00am 4ft 8s 7 9 mph 1022mb 74f 69f
4:00am 3.5ft 8s 7 9 mph 1021.7mb 74f 69f
3:00am 3.5ft 8s 7 9 mph 1021.9mb 74f 69f
2:00am 4ft 9s 7 9 mph 1021.7mb 74f 69f
1:00am 4ft 8s 7 9 mph 1022mb 74f 69f
12:00am 3.5ft 9s 7 9 mph 1022mb 74f 69f
Mon 08/25 11:00pm 4ft 8s 7 9 mph 1022.1mb 74f 69f
10:00pm 4ft 8s 7 9 mph 1022.2mb 74f 69f
9:00pm 3.5ft 8s 7 9 mph 1022mb 74f 69f
8:00pm 4ft 8s 7 9 mph 1021.8mb 74f 70f
7:00pm 4ft 8s 7 9 mph 1021.2mb 74f 70f
6:00pm 4ft 9s 7 9 mph 1020.8mb 74f 71f
5:00pm 4ft 9s 7 9 mph 1021mb 74f 71f
4:00pm 4.5ft 8s 7 9 mph 1021.1mb 74f 71f
3:00pm 4.5ft 9s 9 11 mph 1021mb 74f 70f
2:00pm 4.5ft 8s 9 13 mph 1021.1mb 74f 70f
1:00pm 4.5ft 8s 11 13 mph 1021.1mb 74f 70f
12:00pm 4.5ft 7s 13 16 mph 1020.9mb 74f 70f
11:00am 5ft 7s 13 18 mph 1020.4mb 74f 70f
10:00am 5ft 7s 13 18 mph 1020.6mb 74f 69f
9:00am 4.5ft 7s 16 20 mph 1020.3mb 74f 70f
8:00am 4.5ft 7s 16 18 mph 1020.4mb 74f 69f
7:00am 4.5ft 8s 16 18 mph 1020mb 74f 69f
6:00am 4.5ft 8s 16 18 mph 1019.4mb 74f 69f
5:00am 4.5ft 8s 13 18 mph 1019mb 74f 69f
4:00am 4.5ft 8s 13 16 mph 1018.5mb 74f 69f
3:00am 4.5ft 8s 13 16 mph 1018.3mb 74f 69f
2:00am 4ft 8s 11 13 mph 1018.6mb 74f 68f
1:00am 4.5ft 7s 9 11 mph 1018.7mb 74f 68f
12:00am 4.5ft 6s 13 18 mph 1018.4mb 74f 68f
Sun 08/24 11:00pm 4ft 6s 13 18 mph 1018.3mb 74f 68f
10:00pm 4.5ft 7s 13 18 mph 1018.3mb 74f 68f
9:00pm 4.5ft 6s 13 18 mph 1018.3mb 74f 68f
8:00pm 5ft 8s 13 18 mph 1018.1mb 74f 68f
7:00pm 4.5ft 8s 13 18 mph 1017.9mb 74f 68f
6:00pm 5ft 8s 13 18 mph 1017.8mb 74f 68f
5:00pm 5ft 8s 13 18 mph 1017.6mb 74f 68f
4:00pm 5ft 7s 13 18 mph 1017.2mb 74f 68f
3:00pm 5ft 7s 16 20 mph 1017.1mb 74f 67f
2:00pm 5.5ft 6s 13 20 mph 1017.3mb 74f 68f
1:00pm 5ft 8s 13 20 mph 1017.4mb 74f 67f
12:00pm 5ft 7s 16 18 mph 1017.4mb 74f 68f